sensor_id;sensor_type;location;lat;lon;timestamp;P1;P2;P0
69224;PMS1003;56333;51.306;17.056;2023-06-19T00:00:35;6.90;6.30;
69224;PMS1003;56333;51.306;17.056;2023-06-19T00:02:17;7.10;6.40;
69224;PMS1003;56333;51.306;17.056;2023-06-19T00:03:46;7.60;6.90;
69224;PMS1003;56333;51.306;17.056;2023-06-19T00:05:14;7.60;6.60;
69224;PMS1003;56333;51.306;17.056;2023-06-19T00:06:43;7.20;6.30;
69224;PMS1003;56333;51.306;17.056;2023-06-19T00:08:14;6.80;6.20;
69224;PMS1003;56333;51.306;17.056;2023-06-19T00:09:43;7.10;6.40;
69224;PMS1003;56333;51.306;17.056;2023-06-19T00:11:12;7.30;6.60;
69224;PMS1003;56333;51.306;17.056;2023-06-19T00:12:41;7.40;6.70;
69224;PMS1003;56333;51.306;17.056;2023-06-19T00:14:10;7.90;7.00;
69224;PMS1003;56333;51.306;17.056;2023-06-19T00:15:39;7.40;6.70;
69224;PMS1003;56333;51.306;17.056;2023-06-19T00:17:07;7.50;6.70;
69224;PMS1003;56333;51.306;17.056;2023-06-19T00:18:36;9.50;7.10;
69224;PMS1003;56333;51.306;17.056;2023-06-19T00:20:07;8.60;7.20;
69224;PMS1003;56333;51.306;17.056;2023-06-19T00:21:36;7.90;7.20;
69224;PMS1003;56333;51.306;17.056;2023-06-19T00:23:05;8.60;7.40;
69224;PMS1003;56333;51.306;17.056;2023-06-19T00:24:37;7.60;6.80;
69224;PMS1003;56333;51.306;17.056;2023-06-19T00:26:06;7.80;6.90;
69224;PMS1003;56333;51.306;17.056;2023-06-19T00:27:35;8.40;7.60;
69224;PMS1003;56333;51.306;17.056;2023-06-19T00:29:04;8.20;7.40;
69224;PMS1003;56333;51.306;17.056;2023-06-19T00:30:33;8.30;7.60;
69224;PMS1003;56333;51.306;17.056;2023-06-19T00:32:02;8.60;7.80;
69224;PMS1003;56333;51.306;17.056;2023-06-19T00:33:32;8.70;7.90;
69224;PMS1003;56333;51.306;17.056;2023-06-19T00:35:01;8.40;7.60;
69224;PMS1003;56333;51.306;17.056;2023-06-19T00:36:30;8.60;7.80;
69224;PMS1003;56333;51.306;17.056;2023-06-19T00:38:08;8.60;7.80;
69224;PMS1003;56333;51.306;17.056;2023-06-19T00:39:37;8.40;7.60;
69224;PMS1003;56333;51.306;17.056;2023-06-19T00:41:06;8.70;7.80;
69224;PMS1003;56333;51.306;17.056;2023-06-19T00:42:35;8.40;7.60;
69224;PMS1003;56333;51.306;17.056;2023-06-19T00:44:04;11.20;7.70;
69224;PMS1003;56333;51.306;17.056;2023-06-19T00:45:33;9.00;8.00;
69224;PMS1003;56333;51.306;17.056;2023-06-19T00:47:04;8.80;7.90;
69224;PMS1003;56333;51.306;17.056;2023-06-19T00:48:35;9.30;8.40;
69224;PMS1003;56333;51.306;17.056;2023-06-19T00:50:06;9.70;8.80;
69224;PMS1003;56333;51.306;17.056;2023-06-19T00:51:36;9.00;8.20;
69224;PMS1003;56333;51.306;17.056;2023-06-19T00:53:05;8.90;8.00;
69224;PMS1003;56333;51.306;17.056;2023-06-19T00:54:34;8.90;8.00;
69224;PMS1003;56333;51.306;17.056;2023-06-19T00:56:04;9.30;7.60;
69224;PMS1003;56333;51.306;17.056;2023-06-19T00:57:34;8.70;7.90;
69224;PMS1003;56333;51.306;17.056;2023-06-19T00:59:03;8.40;7.60;
69224;PMS1003;56333;51.306;17.056;2023-06-19T01:00:34;8.50;7.80;
69224;PMS1003;56333;51.306;17.056;2023-06-19T01:02:03;8.40;7.60;
69224;PMS1003;56333;51.306;17.056;2023-06-19T01:03:32;8.70;7.80;
69224;PMS1003;56333;51.306;17.056;2023-06-19T01:05:02;8.40;7.50;
69224;PMS1003;56333;51.306;17.056;2023-06-19T01:06:39;8.60;7.70;
69224;PMS1003;56333;51.306;17.056;2023-06-19T01:08:17;8.60;7.70;
69224;PMS1003;56333;51.306;17.056;2023-06-19T01:10:08;8.70;7.90;
69224;PMS1003;56333;51.306;17.056;2023-06-19T01:11:54;8.60;7.80;
69224;PMS1003;56333;51.306;17.056;2023-06-19T01:13:28;8.20;7.50;
69224;PMS1003;56333;51.306;17.056;2023-06-19T01:15:04;8.40;7.60;
69224;PMS1003;56333;51.306;17.056;2023-06-19T01:16:35;8.50;7.60;
69224;PMS1003;56333;51.306;17.056;2023-06-19T01:18:05;8.50;7.30;
69224;PMS1003;56333;51.306;17.056;2023-06-19T01:19:37;9.30;7.90;
69224;PMS1003;56333;51.306;17.056;2023-06-19T01:21:15;8.30;7.50;
69224;PMS1003;56333;51.306;17.056;2023-06-19T01:22:45;8.60;7.50;
69224;PMS1003;56333;51.306;17.056;2023-06-19T01:24:13;8.50;7.70;
69224;PMS1003;56333;51.306;17.056;2023-06-19T01:25:42;8.70;7.80;
69224;PMS1003;56333;51.306;17.056;2023-06-19T01:27:11;8.90;8.00;
69224;PMS1003;56333;51.306;17.056;2023-06-19T01:28:42;9.70;8.80;
69224;PMS1003;56333;51.306;17.056;2023-06-19T01:30:13;9.10;8.20;
69224;PMS1003;56333;51.306;17.056;2023-06-19T01:31:49;8.80;7.90;
69224;PMS1003;56333;51.306;17.056;2023-06-19T01:33:25;8.90;8.10;
69224;PMS1003;56333;51.306;17.056;2023-06-19T01:34:57;9.10;7.70;
69224;PMS1003;56333;51.306;17.056;2023-06-19T01:36:28;9.00;8.10;
69224;PMS1003;56333;51.306;17.056;2023-06-19T01:38:00;9.10;7.50;
69224;PMS1003;56333;51.306;17.056;2023-06-19T01:39:33;8.90;8.00;
69224;PMS1003;56333;51.306;17.056;2023-06-19T01:41:03;8.70;7.70;
69224;PMS1003;56333;51.306;17.056;2023-06-19T01:42:33;8.50;7.70;
69224;PMS1003;56333;51.306;17.056;2023-06-19T01:44:04;8.50;7.70;
69224;PMS1003;56333;51.306;17.056;2023-06-19T01:45:34;8.90;8.10;
69224;PMS1003;56333;51.306;17.056;2023-06-19T01:47:09;9.40;8.30;
69224;PMS1003;56333;51.306;17.056;2023-06-19T01:48:42;9.00;8.10;
69224;PMS1003;56333;51.306;17.056;2023-06-19T01:50:12;9.00;8.20;
69224;PMS1003;56333;51.306;17.056;2023-06-19T01:51:40;9.50;8.60;
69224;PMS1003;56333;51.306;17.056;2023-06-19T01:53:09;8.80;8.00;
69224;PMS1003;56333;51.306;17.056;2023-06-19T01:54:38;8.60;7.80;
69224;PMS1003;56333;51.306;17.056;2023-06-19T01:56:07;9.30;8.40;
69224;PMS1003;56333;51.306;17.056;2023-06-19T01:57:36;9.40;8.40;
69224;PMS1003;56333;51.306;17.056;2023-06-19T01:59:06;8.70;7.90;
69224;PMS1003;56333;51.306;17.056;2023-06-19T02:00:35;9.30;8.50;
69224;PMS1003;56333;51.306;17.056;2023-06-19T02:02:04;8.80;8.00;
69224;PMS1003;56333;51.306;17.056;2023-06-19T02:03:34;8.80;7.80;
69224;PMS1003;56333;51.306;17.056;2023-06-19T02:05:03;9.50;8.10;
69224;PMS1003;56333;51.306;17.056;2023-06-19T02:06:34;9.10;7.70;
69224;PMS1003;56333;51.306;17.056;2023-06-19T02:08:02;9.00;8.10;
69224;PMS1003;56333;51.306;17.056;2023-06-19T02:09:34;9.00;8.10;
69224;PMS1003;56333;51.306;17.056;2023-06-19T02:11:05;9.00;8.10;
69224;PMS1003;56333;51.306;17.056;2023-06-19T02:12:34;11.20;7.90;
69224;PMS1003;56333;51.306;17.056;2023-06-19T02:14:02;9.50;8.10;
69224;PMS1003;56333;51.306;17.056;2023-06-19T02:15:31;9.90;8.40;
69224;PMS1003;56333;51.306;17.056;2023-06-19T02:17:00;9.60;8.70;
69224;PMS1003;56333;51.306;17.056;2023-06-19T02:18:29;13.10;8.50;
69224;PMS1003;56333;51.306;17.056;2023-06-19T02:19:58;9.40;8.50;
69224;PMS1003;56333;51.306;17.056;2023-06-19T02:21:27;9.60;8.70;
69224;PMS1003;56333;51.306;17.056;2023-06-19T02:22:56;10.60;8.40;
69224;PMS1003;56333;51.306;17.056;2023-06-19T02:24:25;9.50;8.20;
69224;PMS1003;56333;51.306;17.056;2023-06-19T02:25:53;8.70;7.90;
69224;PMS1003;56333;51.306;17.056;2023-06-19T02:27:22;9.70;8.70;
69224;PMS1003;56333;51.306;17.056;2023-06-19T02:28:50;9.90;8.70;
69224;PMS1003;56333;51.306;17.056;2023-06-19T02:30:19;9.20;8.30;
69224;PMS1003;56333;51.306;17.056;2023-06-19T02:31:48;9.60;8.20;
69224;PMS1003;56333;51.306;17.056;2023-06-19T02:33:16;9.10;8.00;
69224;PMS1003;56333;51.306;17.056;2023-06-19T02:34:46;9.50;8.60;
69224;PMS1003;56333;51.306;17.056;2023-06-19T02:36:15;9.50;8.60;
69224;PMS1003;56333;51.306;17.056;2023-06-19T02:37:45;9.50;8.60;
69224;PMS1003;56333;51.306;17.056;2023-06-19T02:39:13;10.20;8.40;
69224;PMS1003;56333;51.306;17.056;2023-06-19T02:40:42;9.30;8.40;
69224;PMS1003;56333;51.306;17.056;2023-06-19T02:42:11;9.30;8.40;
69224;PMS1003;56333;51.306;17.056;2023-06-19T02:43:40;10.00;8.40;
69224;PMS1003;56333;51.306;17.056;2023-06-19T02:45:10;10.20;8.60;
69224;PMS1003;56333;51.306;17.056;2023-06-19T02:46:40;10.40;8.70;
69224;PMS1003;56333;51.306;17.056;2023-06-19T02:48:10;10.30;8.20;
69224;PMS1003;56333;51.306;17.056;2023-06-19T02:49:38;9.60;8.30;
69224;PMS1003;56333;51.306;17.056;2023-06-19T02:51:06;11.90;8.60;
69224;PMS1003;56333;51.306;17.056;2023-06-19T02:52:35;10.40;8.80;
69224;PMS1003;56333;51.306;17.056;2023-06-19T02:54:04;10.70;8.70;
69224;PMS1003;56333;51.306;17.056;2023-06-19T02:55:33;10.60;8.50;
69224;PMS1003;56333;51.306;17.056;2023-06-19T02:57:04;11.70;8.30;
69224;PMS1003;56333;51.306;17.056;2023-06-19T02:58:35;10.10;8.10;
69224;PMS1003;56333;51.306;17.056;2023-06-19T03:00:05;9.90;8.90;
69224;PMS1003;56333;51.306;17.056;2023-06-19T03:03:02;10.50;8.90;
69224;PMS1003;56333;51.306;17.056;2023-06-19T03:04:31;10.30;9.00;
69224;PMS1003;56333;51.306;17.056;2023-06-19T03:06:01;10.50;9.40;
69224;PMS1003;56333;51.306;17.056;2023-06-19T03:07:29;9.60;8.70;
69224;PMS1003;56333;51.306;17.056;2023-06-19T03:08:58;9.30;8.00;
69224;PMS1003;56333;51.306;17.056;2023-06-19T03:10:27;9.40;8.00;
69224;PMS1003;56333;51.306;17.056;2023-06-19T03:11:55;8.90;7.90;
69224;PMS1003;56333;51.306;17.056;2023-06-19T03:13:24;9.80;7.80;
69224;PMS1003;56333;51.306;17.056;2023-06-19T03:14:53;8.50;7.60;
69224;PMS1003;56333;51.306;17.056;2023-06-19T03:16:22;10.40;7.80;
69224;PMS1003;56333;51.306;17.056;2023-06-19T03:17:51;8.40;7.60;
69224;PMS1003;56333;51.306;17.056;2023-06-19T03:19:21;9.00;8.10;
69224;PMS1003;56333;51.306;17.056;2023-06-19T03:20:50;8.60;7.70;
69224;PMS1003;56333;51.306;17.056;2023-06-19T03:22:20;9.10;8.20;
69224;PMS1003;56333;51.306;17.056;2023-06-19T03:23:49;9.10;8.20;
69224;PMS1003;56333;51.306;17.056;2023-06-19T03:25:19;9.40;8.50;
69224;PMS1003;56333;51.306;17.056;2023-06-19T03:26:47;9.30;7.90;
69224;PMS1003;56333;51.306;17.056;2023-06-19T03:28:16;8.10;7.30;
69224;PMS1003;56333;51.306;17.056;2023-06-19T03:29:46;8.80;7.30;
69224;PMS1003;56333;51.306;17.056;2023-06-19T03:31:19;7.90;7.10;
69224;PMS1003;56333;51.306;17.056;2023-06-19T03:32:48;8.10;7.20;
69224;PMS1003;56333;51.306;17.056;2023-06-19T03:34:37;8.80;7.80;
69224;PMS1003;56333;51.306;17.056;2023-06-19T03:36:08;8.70;7.80;
69224;PMS1003;56333;51.306;17.056;2023-06-19T03:37:45;8.50;7.60;
69224;PMS1003;56333;51.306;17.056;2023-06-19T03:39:14;8.30;7.30;
69224;PMS1003;56333;51.306;17.056;2023-06-19T03:40:43;8.00;7.20;
69224;PMS1003;56333;51.306;17.056;2023-06-19T03:42:12;8.70;7.70;
69224;PMS1003;56333;51.306;17.056;2023-06-19T03:43:43;8.30;7.40;
69224;PMS1003;56333;51.306;17.056;2023-06-19T03:45:13;8.10;7.30;
69224;PMS1003;56333;51.306;17.056;2023-06-19T03:46:41;8.20;7.30;
69224;PMS1003;56333;51.306;17.056;2023-06-19T03:48:12;7.60;6.80;
69224;PMS1003;56333;51.306;17.056;2023-06-19T03:49:42;8.10;7.30;
69224;PMS1003;56333;51.306;17.056;2023-06-19T03:51:10;8.30;6.90;
69224;PMS1003;56333;51.306;17.056;2023-06-19T03:52:39;9.60;6.80;
69224;PMS1003;56333;51.306;17.056;2023-06-19T03:54:08;7.90;6.60;
69224;PMS1003;56333;51.306;17.056;2023-06-19T03:55:37;7.20;6.50;
69224;PMS1003;56333;51.306;17.056;2023-06-19T03:57:07;9.20;7.00;
69224;PMS1003;56333;51.306;17.056;2023-06-19T03:58:36;7.80;7.00;
69224;PMS1003;56333;51.306;17.056;2023-06-19T04:00:07;13.20;6.70;
69224;PMS1003;56333;51.306;17.056;2023-06-19T04:01:39;11.10;10.00;
69224;PMS1003;56333;51.306;17.056;2023-06-19T04:03:09;9.80;8.70;
69224;PMS1003;56333;51.306;17.056;2023-06-19T04:04:37;11.20;7.90;
69224;PMS1003;56333;51.306;17.056;2023-06-19T04:06:06;9.50;7.40;
69224;PMS1003;56333;51.306;17.056;2023-06-19T04:07:38;8.50;7.60;
69224;PMS1003;56333;51.306;17.056;2023-06-19T04:09:07;8.60;7.70;
69224;PMS1003;56333;51.306;17.056;2023-06-19T04:10:37;9.70;8.30;
69224;PMS1003;56333;51.306;17.056;2023-06-19T04:12:07;9.30;8.30;
69224;PMS1003;56333;51.306;17.056;2023-06-19T04:13:37;8.80;7.90;
69224;PMS1003;56333;51.306;17.056;2023-06-19T04:15:07;8.70;7.60;
69224;PMS1003;56333;51.306;17.056;2023-06-19T04:16:37;9.20;8.30;
69224;PMS1003;56333;51.306;17.056;2023-06-19T04:18:06;9.20;8.40;
69224;PMS1003;56333;51.306;17.056;2023-06-19T04:19:36;9.00;8.10;
69224;PMS1003;56333;51.306;17.056;2023-06-19T04:21:05;9.10;8.20;
69224;PMS1003;56333;51.306;17.056;2023-06-19T04:22:35;10.20;8.20;
69224;PMS1003;56333;51.306;17.056;2023-06-19T04:24:05;8.10;7.40;
69224;PMS1003;56333;51.306;17.056;2023-06-19T04:25:35;8.50;7.70;
69224;PMS1003;56333;51.306;17.056;2023-06-19T04:27:04;8.60;7.70;
69224;PMS1003;56333;51.306;17.056;2023-06-19T04:28:34;8.70;7.90;
69224;PMS1003;56333;51.306;17.056;2023-06-19T04:30:04;8.30;7.50;
69224;PMS1003;56333;51.306;17.056;2023-06-19T04:31:34;8.30;7.20;
69224;PMS1003;56333;51.306;17.056;2023-06-19T04:33:06;8.80;7.60;
69224;PMS1003;56333;51.306;17.056;2023-06-19T04:34:35;8.30;7.50;
69224;PMS1003;56333;51.306;17.056;2023-06-19T04:36:04;8.30;7.50;
69224;PMS1003;56333;51.306;17.056;2023-06-19T04:37:36;8.50;7.60;
69224;PMS1003;56333;51.306;17.056;2023-06-19T04:39:05;8.80;7.20;
69224;PMS1003;56333;51.306;17.056;2023-06-19T04:40:34;8.20;7.10;
69224;PMS1003;56333;51.306;17.056;2023-06-19T04:42:03;7.60;6.80;
69224;PMS1003;56333;51.306;17.056;2023-06-19T04:43:33;9.70;7.50;
69224;PMS1003;56333;51.306;17.056;2023-06-19T04:45:02;8.30;7.50;
69224;PMS1003;56333;51.306;17.056;2023-06-19T04:46:33;8.20;7.30;
69224;PMS1003;56333;51.306;17.056;2023-06-19T04:48:04;7.90;7.10;
69224;PMS1003;56333;51.306;17.056;2023-06-19T04:49:33;7.50;6.80;
69224;PMS1003;56333;51.306;17.056;2023-06-19T04:51:01;8.00;7.20;
69224;PMS1003;56333;51.306;17.056;2023-06-19T04:52:30;8.20;7.40;
69224;PMS1003;56333;51.306;17.056;2023-06-19T04:53:59;8.20;7.20;
69224;PMS1003;56333;51.306;17.056;2023-06-19T04:55:28;8.40;7.50;
69224;PMS1003;56333;51.306;17.056;2023-06-19T04:56:57;8.70;7.70;
69224;PMS1003;56333;51.306;17.056;2023-06-19T04:58:27;8.80;7.90;
69224;PMS1003;56333;51.306;17.056;2023-06-19T04:59:55;8.00;7.20;
69224;PMS1003;56333;51.306;17.056;2023-06-19T05:01:25;8.10;7.30;
69224;PMS1003;56333;51.306;17.056;2023-06-19T05:02:54;7.90;7.20;
69224;PMS1003;56333;51.306;17.056;2023-06-19T05:04:26;9.60;7.70;
69224;PMS1003;56333;51.306;17.056;2023-06-19T05:05:58;8.20;7.40;
69224;PMS1003;56333;51.306;17.056;2023-06-19T05:07:27;8.70;7.80;
69224;PMS1003;56333;51.306;17.056;2023-06-19T05:08:56;9.00;8.00;
69224;PMS1003;56333;51.306;17.056;2023-06-19T05:10:24;8.60;7.90;
69224;PMS1003;56333;51.306;17.056;2023-06-19T05:11:52;8.20;7.50;
69224;PMS1003;56333;51.306;17.056;2023-06-19T05:13:21;8.30;7.50;
69224;PMS1003;56333;51.306;17.056;2023-06-19T05:14:50;8.30;7.50;
69224;PMS1003;56333;51.306;17.056;2023-06-19T05:16:19;10.30;8.10;
69224;PMS1003;56333;51.306;17.056;2023-06-19T05:17:48;7.90;7.20;
69224;PMS1003;56333;51.306;17.056;2023-06-19T05:19:18;8.30;7.50;
69224;PMS1003;56333;51.306;17.056;2023-06-19T05:20:46;9.30;8.10;
69224;PMS1003;56333;51.306;17.056;2023-06-19T05:22:16;9.00;7.80;
69224;PMS1003;56333;51.306;17.056;2023-06-19T05:23:48;9.40;7.40;
69224;PMS1003;56333;51.306;17.056;2023-06-19T05:25:18;9.00;7.80;
69224;PMS1003;56333;51.306;17.056;2023-06-19T05:26:47;7.90;7.10;
69224;PMS1003;56333;51.306;17.056;2023-06-19T05:28:16;8.20;7.40;
69224;PMS1003;56333;51.306;17.056;2023-06-19T05:29:45;8.40;7.60;
69224;PMS1003;56333;51.306;17.056;2023-06-19T05:31:14;9.20;7.60;
69224;PMS1003;56333;51.306;17.056;2023-06-19T05:32:44;8.80;7.70;
69224;PMS1003;56333;51.306;17.056;2023-06-19T05:34:12;9.40;8.10;
69224;PMS1003;56333;51.306;17.056;2023-06-19T05:35:41;8.60;7.40;
69224;PMS1003;56333;51.306;17.056;2023-06-19T05:37:17;8.30;7.40;
69224;PMS1003;56333;51.306;17.056;2023-06-19T05:38:47;66.30;12.50;
69224;PMS1003;56333;51.306;17.056;2023-06-19T05:40:16;39.30;12.30;
69224;PMS1003;56333;51.306;17.056;2023-06-19T05:41:45;19.10;9.10;
69224;PMS1003;56333;51.306;17.056;2023-06-19T05:43:13;9.60;7.90;
69224;PMS1003;56333;51.306;17.056;2023-06-19T05:44:41;7.50;6.80;
69224;PMS1003;56333;51.306;17.056;2023-06-19T05:46:10;8.00;7.20;
69224;PMS1003;56333;51.306;17.056;2023-06-19T05:47:39;11.70;9.00;
69224;PMS1003;56333;51.306;17.056;2023-06-19T05:49:08;16.50;8.50;
69224;PMS1003;56333;51.306;17.056;2023-06-19T05:50:36;11.00;7.50;
69224;PMS1003;56333;51.306;17.056;2023-06-19T05:52:07;18.60;8.10;
69224;PMS1003;56333;51.306;17.056;2023-06-19T05:53:36;22.40;8.60;
69224;PMS1003;56333;51.306;17.056;2023-06-19T05:55:07;15.60;8.10;
69224;PMS1003;56333;51.306;17.056;2023-06-19T05:56:37;16.10;7.70;
69224;PMS1003;56333;51.306;17.056;2023-06-19T05:58:06;7.40;6.70;
69224;PMS1003;56333;51.306;17.056;2023-06-19T05:59:35;7.40;6.30;
69224;PMS1003;56333;51.306;17.056;2023-06-19T06:01:04;8.40;7.10;
69224;PMS1003;56333;51.306;17.056;2023-06-19T06:02:34;11.20;10.00;
69224;PMS1003;56333;51.306;17.056;2023-06-19T06:04:02;9.70;7.70;
69224;PMS1003;56333;51.306;17.056;2023-06-19T06:05:31;11.30;10.20;
69224;PMS1003;56333;51.306;17.056;2023-06-19T06:07:02;8.50;7.70;
69224;PMS1003;56333;51.306;17.056;2023-06-19T06:08:31;7.90;6.20;
69224;PMS1003;56333;51.306;17.056;2023-06-19T06:10:00;8.40;6.90;
69224;PMS1003;56333;51.306;17.056;2023-06-19T06:11:29;7.30;6.60;
69224;PMS1003;56333;51.306;17.056;2023-06-19T06:12:57;7.40;6.70;
69224;PMS1003;56333;51.306;17.056;2023-06-19T06:14:27;6.90;6.20;
69224;PMS1003;56333;51.306;17.056;2023-06-19T06:15:55;7.60;6.60;
69224;PMS1003;56333;51.306;17.056;2023-06-19T06:17:24;7.00;6.40;
69224;PMS1003;56333;51.306;17.056;2023-06-19T06:18:53;7.40;6.70;
69224;PMS1003;56333;51.306;17.056;2023-06-19T06:20:22;7.50;6.80;
69224;PMS1003;56333;51.306;17.056;2023-06-19T06:21:51;7.70;6.80;
69224;PMS1003;56333;51.306;17.056;2023-06-19T06:23:20;7.80;7.00;
69224;PMS1003;56333;51.306;17.056;2023-06-19T06:24:48;7.90;7.10;
69224;PMS1003;56333;51.306;17.056;2023-06-19T06:26:17;8.00;7.20;
69224;PMS1003;56333;51.306;17.056;2023-06-19T06:27:47;8.20;7.30;
69224;PMS1003;56333;51.306;17.056;2023-06-19T06:29:16;8.60;7.30;
69224;PMS1003;56333;51.306;17.056;2023-06-19T06:30:46;7.90;7.10;
69224;PMS1003;56333;51.306;17.056;2023-06-19T06:32:14;8.40;7.60;
69224;PMS1003;56333;51.306;17.056;2023-06-19T06:33:44;9.50;8.20;
69224;PMS1003;56333;51.306;17.056;2023-06-19T06:35:13;10.50;7.50;
69224;PMS1003;56333;51.306;17.056;2023-06-19T06:36:41;12.90;8.80;
69224;PMS1003;56333;51.306;17.056;2023-06-19T06:38:10;10.20;8.50;
69224;PMS1003;56333;51.306;17.056;2023-06-19T06:39:39;12.10;8.10;
69224;PMS1003;56333;51.306;17.056;2023-06-19T06:41:08;8.90;7.40;
69224;PMS1003;56333;51.306;17.056;2023-06-19T06:42:37;8.10;7.30;
69224;PMS1003;56333;51.306;17.056;2023-06-19T06:44:06;7.80;6.80;
69224;PMS1003;56333;51.306;17.056;2023-06-19T06:45:36;8.50;7.20;
69224;PMS1003;56333;51.306;17.056;2023-06-19T06:47:07;7.50;6.80;
69224;PMS1003;56333;51.306;17.056;2023-06-19T06:48:36;7.90;7.10;
69224;PMS1003;56333;51.306;17.056;2023-06-19T06:50:07;9.10;6.30;
69224;PMS1003;56333;51.306;17.056;2023-06-19T06:51:36;7.40;6.60;
69224;PMS1003;56333;51.306;17.056;2023-06-19T06:53:05;8.00;7.00;
69224;PMS1003;56333;51.306;17.056;2023-06-19T06:54:34;9.00;8.10;
69224;PMS1003;56333;51.306;17.056;2023-06-19T06:56:02;8.40;7.60;
69224;PMS1003;56333;51.306;17.056;2023-06-19T06:57:32;8.50;7.70;
69224;PMS1003;56333;51.306;17.056;2023-06-19T06:59:01;8.00;7.30;
69224;PMS1003;56333;51.306;17.056;2023-06-19T07:00:29;8.60;7.70;
69224;PMS1003;56333;51.306;17.056;2023-06-19T07:01:58;9.50;8.50;
69224;PMS1003;56333;51.306;17.056;2023-06-19T07:03:27;8.50;7.70;
69224;PMS1003;56333;51.306;17.056;2023-06-19T07:04:57;8.90;8.00;
69224;PMS1003;56333;51.306;17.056;2023-06-19T07:06:26;9.20;8.10;
69224;PMS1003;56333;51.306;17.056;2023-06-19T07:07:55;9.00;8.20;
69224;PMS1003;56333;51.306;17.056;2023-06-19T07:09:23;9.40;8.50;
69224;PMS1003;56333;51.306;17.056;2023-06-19T07:10:52;10.20;9.00;
69224;PMS1003;56333;51.306;17.056;2023-06-19T07:12:21;10.20;9.20;
69224;PMS1003;56333;51.306;17.056;2023-06-19T07:13:50;9.80;8.70;
69224;PMS1003;56333;51.306;17.056;2023-06-19T07:15:19;10.40;9.30;
69224;PMS1003;56333;51.306;17.056;2023-06-19T07:16:48;10.30;8.80;
69224;PMS1003;56333;51.306;17.056;2023-06-19T07:18:17;11.50;9.90;
69224;PMS1003;56333;51.306;17.056;2023-06-19T07:19:46;11.00;10.00;
69224;PMS1003;56333;51.306;17.056;2023-06-19T07:21:15;10.10;9.10;
69224;PMS1003;56333;51.306;17.056;2023-06-19T07:22:45;10.30;9.20;
69224;PMS1003;56333;51.306;17.056;2023-06-19T07:24:14;9.00;8.10;
69224;PMS1003;56333;51.306;17.056;2023-06-19T07:25:45;9.70;7.60;
69224;PMS1003;56333;51.306;17.056;2023-06-19T07:27:14;7.80;7.00;
69224;PMS1003;56333;51.306;17.056;2023-06-19T07:28:43;8.60;7.70;
69224;PMS1003;56333;51.306;17.056;2023-06-19T07:30:13;8.10;7.40;
69224;PMS1003;56333;51.306;17.056;2023-06-19T07:31:42;9.00;7.20;
69224;PMS1003;56333;51.306;17.056;2023-06-19T07:33:11;7.80;7.00;
69224;PMS1003;56333;51.306;17.056;2023-06-19T07:34:39;7.60;6.70;
69224;PMS1003;56333;51.306;17.056;2023-06-19T07:36:08;7.50;6.60;
69224;PMS1003;56333;51.306;17.056;2023-06-19T07:37:39;7.40;6.20;
69224;PMS1003;56333;51.306;17.056;2023-06-19T07:39:08;6.60;6.00;
69224;PMS1003;56333;51.306;17.056;2023-06-19T07:40:37;8.60;7.80;
69224;PMS1003;56333;51.306;17.056;2023-06-19T07:42:07;9.50;8.60;
69224;PMS1003;56333;51.306;17.056;2023-06-19T07:43:36;8.20;7.40;
69224;PMS1003;56333;51.306;17.056;2023-06-19T07:45:07;7.90;7.10;
69224;PMS1003;56333;51.306;17.056;2023-06-19T07:46:37;7.60;6.90;
69224;PMS1003;56333;51.306;17.056;2023-06-19T07:48:06;6.80;6.10;
69224;PMS1003;56333;51.306;17.056;2023-06-19T07:49:34;7.00;6.30;
69224;PMS1003;56333;51.306;17.056;2023-06-19T07:51:03;6.40;5.80;
69224;PMS1003;56333;51.306;17.056;2023-06-19T07:52:32;6.30;5.50;
69224;PMS1003;56333;51.306;17.056;2023-06-19T07:54:02;7.40;5.90;
69224;PMS1003;56333;51.306;17.056;2023-06-19T07:55:31;6.80;5.80;
69224;PMS1003;56333;51.306;17.056;2023-06-19T07:57:01;6.20;5.50;
69224;PMS1003;56333;51.306;17.056;2023-06-19T07:58:29;7.40;5.30;
69224;PMS1003;56333;51.306;17.056;2023-06-19T07:59:58;5.60;5.10;
69224;PMS1003;56333;51.306;17.056;2023-06-19T08:01:38;6.50;5.80;
69224;PMS1003;56333;51.306;17.056;2023-06-19T08:03:07;6.60;6.00;
69224;PMS1003;56333;51.306;17.056;2023-06-19T08:04:36;7.20;5.80;
69224;PMS1003;56333;51.306;17.056;2023-06-19T08:06:05;7.20;5.90;
69224;PMS1003;56333;51.306;17.056;2023-06-19T08:07:34;8.00;6.00;
69224;PMS1003;56333;51.306;17.056;2023-06-19T08:09:03;6.10;5.40;
69224;PMS1003;56333;51.306;17.056;2023-06-19T08:10:31;6.10;5.30;
69224;PMS1003;56333;51.306;17.056;2023-06-19T08:12:00;5.90;5.20;
69224;PMS1003;56333;51.306;17.056;2023-06-19T08:13:29;6.40;5.80;
69224;PMS1003;56333;51.306;17.056;2023-06-19T08:14:58;8.10;5.90;
69224;PMS1003;56333;51.306;17.056;2023-06-19T08:16:27;10.70;7.10;
69224;PMS1003;56333;51.306;17.056;2023-06-19T08:17:56;10.20;6.70;
69224;PMS1003;56333;51.306;17.056;2023-06-19T08:19:24;6.50;5.80;
69224;PMS1003;56333;51.306;17.056;2023-06-19T08:20:54;9.00;7.10;
69224;PMS1003;56333;51.306;17.056;2023-06-19T08:22:22;7.20;6.30;
69224;PMS1003;56333;51.306;17.056;2023-06-19T08:23:52;7.20;5.70;
69224;PMS1003;56333;51.306;17.056;2023-06-19T08:25:20;6.90;6.00;
69224;PMS1003;56333;51.306;17.056;2023-06-19T08:26:49;8.00;5.60;
69224;PMS1003;56333;51.306;17.056;2023-06-19T08:28:18;8.10;6.10;
69224;PMS1003;56333;51.306;17.056;2023-06-19T08:29:47;7.70;6.30;
69224;PMS1003;56333;51.306;17.056;2023-06-19T08:31:17;6.40;5.70;
69224;PMS1003;56333;51.306;17.056;2023-06-19T08:32:48;6.50;5.60;
69224;PMS1003;56333;51.306;17.056;2023-06-19T08:34:17;9.70;6.90;
69224;PMS1003;56333;51.306;17.056;2023-06-19T08:35:46;11.20;6.60;
69224;PMS1003;56333;51.306;17.056;2023-06-19T08:37:15;9.00;6.40;
69224;PMS1003;56333;51.306;17.056;2023-06-19T08:38:45;8.70;6.20;
69224;PMS1003;56333;51.306;17.056;2023-06-19T08:40:16;8.40;6.20;
69224;PMS1003;56333;51.306;17.056;2023-06-19T08:41:46;6.80;5.80;
69224;PMS1003;56333;51.306;17.056;2023-06-19T08:43:15;10.50;6.60;
69224;PMS1003;56333;51.306;17.056;2023-06-19T08:44:44;8.50;6.40;
69224;PMS1003;56333;51.306;17.056;2023-06-19T08:46:16;7.90;6.40;
69224;PMS1003;56333;51.306;17.056;2023-06-19T08:47:50;9.20;6.50;
69224;PMS1003;56333;51.306;17.056;2023-06-19T08:49:26;7.20;6.10;
69224;PMS1003;56333;51.306;17.056;2023-06-19T08:51:00;6.40;5.50;
69224;PMS1003;56333;51.306;17.056;2023-06-19T08:52:29;8.00;6.00;
69224;PMS1003;56333;51.306;17.056;2023-06-19T08:54:03;6.60;5.90;
69224;PMS1003;56333;51.306;17.056;2023-06-19T08:55:32;7.10;5.80;
69224;PMS1003;56333;51.306;17.056;2023-06-19T08:57:05;7.30;6.00;
69224;PMS1003;56333;51.306;17.056;2023-06-19T08:58:34;13.20;6.80;
69224;PMS1003;56333;51.306;17.056;2023-06-19T09:00:05;7.50;6.20;
69224;PMS1003;56333;51.306;17.056;2023-06-19T09:01:35;11.80;7.60;
69224;PMS1003;56333;51.306;17.056;2023-06-19T09:03:05;7.90;6.50;
69224;PMS1003;56333;51.306;17.056;2023-06-19T09:04:35;9.90;6.30;
69224;PMS1003;56333;51.306;17.056;2023-06-19T09:06:07;7.60;6.20;
69224;PMS1003;56333;51.306;17.056;2023-06-19T09:07:37;8.20;6.30;
69224;PMS1003;56333;51.306;17.056;2023-06-19T09:09:06;6.80;6.10;
69224;PMS1003;56333;51.306;17.056;2023-06-19T09:10:39;7.40;6.50;